Time;durP1;ratioP1;P1;durP2;ratioP2;P2;SDS_P1;SDS_P2;PMS_P1;PMS_P2;Temp;Humidity;BMP_temperature;BMP_pressure;BME280_temperature;BME280_humidity;BME280_pressure;Samples;Min_cycle;Max_cycle;Signal;HPM_P1;HPM_P2
2020/12/02 00:00:11;;;;;;;22.97;15.73;;;;;;;;;;5116641;27;20751;-62
2020/12/02 00:02:42;;;;;;;24.23;15.93;;;;;;;;;;5099841;28;20459;-62
2020/12/02 00:05:10;;;;;;;21.60;16.17;;;;;;;;;;5121186;27;20077;-62
2020/12/02 00:07:36;;;;;;;23.10;16.40;;;;;;;;;;5118993;27;20455;-62
2020/12/02 00:10:04;;;;;;;23.30;15.83;;;;;;;;;;5125146;27;20036;-62
2020/12/02 00:12:30;;;;;;;21.83;15.57;;;;;;;;;;5117214;27;20094;-62
2020/12/02 00:14:56;;;;;;;23.13;16.43;;;;;;;;;;5123604;27;20054;-62
2020/12/02 00:20:26;;;;;;;21.10;14.53;;;;;;;;;;5123080;27;20562;-62
2020/12/02 00:22:52;;;;;;;21.27;15.00;;;;;;;;;;5124203;27;20019;-60
2020/12/02 00:25:18;;;;;;;19.50;14.60;;;;;;;;;;5121111;27;20023;-61
2020/12/02 00:27:44;;;;;;;23.30;15.77;;;;;;;;;;5116464;27;20490;-61
2020/12/02 00:30:12;;;;;;;21.93;14.90;;;;;;;;;;5121830;27;20102;-61
2020/12/02 00:32:40;;;;;;;21.07;14.73;;;;;;;;;;5126151;27;20027;-60
2020/12/02 00:35:08;;;;;;;20.33;15.87;;;;;;;;;;5117154;27;20023;-62
2020/12/02 00:37:34;;;;;;;20.50;14.80;;;;;;;;;;5123243;27;20040;-61
2020/12/02 00:40:00;;;;;;;20.33;14.90;;;;;;;;;;5114680;27;20035;-61
2020/12/02 00:42:26;;;;;;;21.30;15.40;;;;;;;;;;5125106;27;20484;-61
2020/12/02 00:44:52;;;;;;;21.13;14.87;;;;;;;;;;5117481;27;20461;-61
2020/12/02 00:47:19;;;;;;;20.47;13.63;;;;;;;;;;5105632;27;20031;-61
2020/12/02 00:49:49;;;;;;;22.13;15.77;;;;;;;;;;5122736;27;20066;-61
2020/12/02 00:52:15;;;;;;;21.57;16.13;;;;;;;;;;5101074;28;20019;-61
2020/12/02 00:54:41;;;;;;;22.10;16.30;;;;;;;;;;5119706;27;20038;-61
2020/12/02 00:57:08;;;;;;;21.47;15.97;;;;;;;;;;5106264;27;20023;-61
2020/12/02 00:59:36;;;;;;;22.93;16.27;;;;;;;;;;5120296;27;20498;-61
2020/12/02 01:02:02;;;;;;;21.53;16.20;;;;;;;;;;5115303;27;20473;-61
2020/12/02 01:04:29;;;;;;;22.23;16.57;;;;;;;;;;5119044;27;20500;-61
2020/12/02 01:06:56;;;;;;;22.13;17.07;;;;;;;;;;5109439;27;20590;-62
2020/12/02 01:09:22;;;;;;;20.70;14.77;;;;;;;;;;5120571;27;20031;-61
2020/12/02 01:11:49;;;;;;;22.07;16.77;;;;;;;;;;5125049;27;20108;-62
2020/12/02 01:14:17;;;;;;;24.07;17.57;;;;;;;;;;5122530;27;20057;-61
2020/12/02 01:16:46;;;;;;;23.60;16.50;;;;;;;;;;5123148;27;20568;-62
2020/12/02 01:19:14;;;;;;;22.20;16.57;;;;;;;;;;5119770;27;20028;-62
2020/12/02 01:21:52;;;;;;;23.30;17.23;;;;;;;;;;5121551;27;20156;-62
2020/12/02 01:24:40;;;;;;;23.17;17.33;;;;;;;;;;5125209;27;20023;-62
2020/12/02 01:27:12;;;;;;;22.57;16.30;;;;;;;;;;5104326;27;20019;-62
2020/12/02 01:29:39;;;;;;;22.73;17.03;;;;;;;;;;5123304;27;20035;-62
2020/12/02 01:32:05;;;;;;;22.27;16.90;;;;;;;;;;5125553;27;20437;-61
2020/12/02 01:34:31;;;;;;;24.03;17.70;;;;;;;;;;5128548;27;20043;-62
2020/12/02 01:37:02;;;;;;;24.60;18.13;;;;;;;;;;5120844;27;20023;-62
2020/12/02 01:39:30;;;;;;;24.03;18.43;;;;;;;;;;5125834;27;20096;-62
2020/12/02 01:41:56;;;;;;;23.83;17.10;;;;;;;;;;5116914;27;20036;-62
2020/12/02 01:44:22;;;;;;;23.93;18.40;;;;;;;;;;5123719;27;20026;-62
2020/12/02 01:46:56;;;;;;;24.73;18.07;;;;;;;;;;5125681;27;20046;-62
2020/12/02 01:49:30;;;;;;;25.00;18.50;;;;;;;;;;5110757;27;20032;-62
2020/12/02 01:52:06;;;;;;;27.17;18.95;;;;;;;;;;5118226;27;20031;-62
2020/12/02 01:54:37;;;;;;;25.37;18.70;;;;;;;;;;5128088;27;20058;-62
2020/12/02 01:57:20;;;;;;;25.97;18.30;;;;;;;;;;5120541;27;20015;-62
2020/12/02 01:59:57;;;;;;;24.13;18.10;;;;;;;;;;5123725;27;20518;-62
2020/12/02 02:02:33;;;;;;;22.50;17.97;;;;;;;;;;5121704;27;20019;-62
2020/12/02 02:05:03;;;;;;;25.50;19.10;;;;;;;;;;5129287;27;20031;-62
2020/12/02 02:07:30;;;;;;;24.53;17.37;;;;;;;;;;5119641;27;20031;-62
2020/12/02 02:10:09;;;;;;;25.60;18.50;;;;;;;;;;5123223;27;20037;-62
2020/12/02 02:12:54;;;;;;;24.93;18.97;;;;;;;;;;5120258;27;20358;-62
2020/12/02 02:15:35;;;;;;;25.45;19.05;;;;;;;;;;5127804;27;20396;-62
2020/12/02 02:18:07;;;;;;;24.10;18.13;;;;;;;;;;5117066;27;20107;-62
2020/12/02 02:20:35;;;;;;;26.33;18.70;;;;;;;;;;5119889;27;20031;-61
2020/12/02 02:23:02;;;;;;;27.57;20.37;;;;;;;;;;5118591;27;20084;-61
2020/12/02 02:25:28;;;;;;;22.93;18.13;;;;;;;;;;5130385;27;20030;-61
2020/12/02 02:27:56;;;;;;;29.90;20.03;;;;;;;;;;5102841;27;20426;-61
2020/12/02 02:30:22;;;;;;;24.90;18.80;;;;;;;;;;5124352;27;20038;-61
2020/12/02 02:32:48;;;;;;;25.43;19.90;;;;;;;;;;5116944;27;20027;-61
2020/12/02 02:35:15;;;;;;;28.83;20.63;;;;;;;;;;5107500;27;20032;-61
2020/12/02 02:37:41;;;;;;;30.30;20.30;;;;;;;;;;5114339;27;20038;-61
2020/12/02 02:40:09;;;;;;;26.17;20.17;;;;;;;;;;5128331;27;20035;-61
2020/12/02 02:42:37;;;;;;;28.50;20.50;;;;;;;;;;5129585;27;20476;-61
2020/12/02 02:45:07;;;;;;;26.93;20.37;;;;;;;;;;5118858;27;20019;-61
2020/12/02 02:47:33;;;;;;;31.37;22.87;;;;;;;;;;5123246;27;20027;-61
2020/12/02 02:49:59;;;;;;;30.57;20.67;;;;;;;;;;5121476;27;20030;-61
2020/12/02 02:52:25;;;;;;;29.07;20.57;;;;;;;;;;5120464;27;20023;-61
2020/12/02 02:54:51;;;;;;;31.13;22.60;;;;;;;;;;5122519;27;20038;-60
2020/12/02 02:57:17;;;;;;;27.53;20.77;;;;;;;;;;5118801;27;20031;-62
2020/12/02 02:59:43;;;;;;;31.13;22.23;;;;;;;;;;5118247;27;20047;-61
2020/12/02 03:02:11;;;;;;;30.17;22.63;;;;;;;;;;5135039;27;20032;-61
2020/12/02 03:04:37;;;;;;;32.40;23.83;;;;;;;;;;5114439;27;20035;-61
2020/12/02 03:07:05;;;;;;;32.60;23.37;;;;;;;;;;5123221;27;20027;-61
2020/12/02 03:09:32;;;;;;;35.00;24.93;;;;;;;;;;5107564;27;20024;-61
2020/12/02 03:11:58;;;;;;;35.63;24.87;;;;;;;;;;5122607;27;20031;-61
2020/12/02 03:14:25;;;;;;;33.50;25.67;;;;;;;;;;5120075;27;20387;-61
2020/12/02 03:16:52;;;;;;;33.50;24.67;;;;;;;;;;5120365;27;20020;-61
2020/12/02 03:19:21;;;;;;;35.87;25.43;;;;;;;;;;5120244;27;20035;-61
2020/12/02 03:21:48;;;;;;;34.77;25.27;;;;;;;;;;5118860;27;20062;-61
2020/12/02 03:24:14;;;;;;;34.07;23.80;;;;;;;;;;5102810;27;20072;-61
2020/12/02 03:26:40;;;;;;;34.10;24.57;;;;;;;;;;5120613;27;20030;-61
2020/12/02 03:29:08;;;;;;;37.47;25.80;;;;;;;;;;5121185;27;20586;-61
2020/12/02 03:31:34;;;;;;;36.70;25.70;;;;;;;;;;5102934;27;20031;-61
2020/12/02 03:34:00;;;;;;;39.40;27.97;;;;;;;;;;5120305;27;20038;-61
2020/12/02 03:36:26;;;;;;;39.13;26.47;;;;;;;;;;5119375;27;20015;-61
2020/12/02 03:38:52;;;;;;;39.87;27.53;;;;;;;;;;5104118;27;20384;-61
2020/12/02 03:41:18;;;;;;;38.10;26.70;;;;;;;;;;5115265;27;20039;-61
2020/12/02 03:43:44;;;;;;;37.53;25.63;;;;;;;;;;5119438;27;20035;-61
2020/12/02 03:46:10;;;;;;;36.37;26.10;;;;;;;;;;5116502;27;20027;-60
2020/12/02 03:48:36;;;;;;;36.27;26.70;;;;;;;;;;5121323;27;20484;-61
2020/12/02 03:51:03;;;;;;;34.90;24.33;;;;;;;;;;5113468;27;21802;-62
2020/12/02 03:53:29;;;;;;;35.37;25.23;;;;;;;;;;5124633;27;20046;-61
2020/12/02 03:55:55;;;;;;;35.70;24.67;;;;;;;;;;5114573;27;22768;-62
2020/12/02 03:58:21;;;;;;;31.90;24.70;;;;;;;;;;5104644;28;20067;-61
2020/12/02 04:00:47;;;;;;;34.43;25.93;;;;;;;;;;5118744;27;20059;-61
2020/12/02 04:03:13;;;;;;;36.80;26.47;;;;;;;;;;5122954;27;20023;-61
2020/12/02 04:05:39;;;;;;;35.97;25.57;;;;;;;;;;5120831;27;20390;-61
2020/12/02 04:08:05;;;;;;;32.23;24.57;;;;;;;;;;5118407;27;20106;-61
2020/12/02 04:10:32;;;;;;;34.33;24.40;;;;;;;;;;5120295;27;20036;-61
2020/12/02 04:12:58;;;;;;;37.27;26.53;;;;;;;;;;5117245;27;20028;-61
2020/12/02 04:15:25;;;;;;;35.83;24.33;;;;;;;;;;5122669;27;20027;-61
2020/12/02 04:17:51;;;;;;;30.67;24.30;;;;;;;;;;5118509;27;20110;-62
2020/12/02 04:20:20;;;;;;;31.57;23.77;;;;;;;;;;5123965;27;20039;-61
2020/12/02 04:22:47;;;;;;;30.23;22.87;;;;;;;;;;5115035;27;20055;-61
2020/12/02 04:25:13;;;;;;;31.67;23.20;;;;;;;;;;5119581;27;20031;-62
2020/12/02 04:27:39;;;;;;;32.77;22.83;;;;;;;;;;5122966;27;20035;-62
2020/12/02 04:30:06;;;;;;;33.47;23.53;;;;;;;;;;5123099;27;20031;-61
2020/12/02 04:32:32;;;;;;;28.37;21.10;;;;;;;;;;5120893;27;20055;-62
2020/12/02 04:35:01;;;;;;;28.97;21.60;;;;;;;;;;5123599;27;20435;-62
2020/12/02 04:37:28;;;;;;;27.43;19.63;;;;;;;;;;5123449;27;20051;-61
2020/12/02 04:39:54;;;;;;;27.40;20.40;;;;;;;;;;5122870;27;20045;-61
2020/12/02 04:42:20;;;;;;;27.10;20.10;;;;;;;;;;5122395;27;20443;-61
2020/12/02 04:44:49;;;;;;;27.03;20.37;;;;;;;;;;5124541;27;20035;-62
2020/12/02 04:47:15;;;;;;;27.37;20.37;;;;;;;;;;5124062;27;20019;-62
2020/12/02 04:49:41;;;;;;;29.03;20.93;;;;;;;;;;5122162;27;20541;-61
2020/12/02 04:52:13;;;;;;;28.80;21.10;;;;;;;;;;5124132;27;20027;-62
2020/12/02 04:54:40;;;;;;;29.73;20.57;;;;;;;;;;5122451;27;20023;-61
2020/12/02 04:57:06;;;;;;;26.83;19.60;;;;;;;;;;5108663;27;20073;-61
2020/12/02 04:59:37;;;;;;;30.77;21.90;;;;;;;;;;5121053;27;20104;-61
2020/12/02 05:02:03;;;;;;;28.33;20.70;;;;;;;;;;5126014;27;20102;-61
2020/12/02 05:04:29;;;;;;;26.67;19.67;;;;;;;;;;5119564;27;20023;-61
2020/12/02 05:07:04;;;;;;;29.40;21.67;;;;;;;;;;5123813;27;20024;-61
2020/12/02 05:09:30;;;;;;;;;;;;;;;;;;5120323;27;20468;-61
2020/12/02 05:11:59;;;;;;;27.87;19.97;;;;;;;;;;5124970;27;19922;-61
2020/12/02 05:14:30;;;;;;;28.90;20.80;;;;;;;;;;5120900;27;20019;-61
2020/12/02 05:17:02;;;;;;;30.70;21.37;;;;;;;;;;5128798;27;20023;-61
2020/12/02 05:19:29;;;;;;;29.43;20.50;;;;;;;;;;5120893;27;20066;-60
2020/12/02 05:22:03;;;;;;;28.07;21.00;;;;;;;;;;5117930;27;20047;-61
2020/12/02 05:24:29;;;;;;;30.52;21.42;;;;;;;;;;5124654;27;20019;-61
2020/12/02 05:27:02;;;;;;;30.33;21.17;;;;;;;;;;5121520;27;20051;-61
2020/12/02 05:29:28;;;;;;;32.93;23.27;;;;;;;;;;5124262;27;22394;-60
2020/12/02 05:32:15;;;;;;;29.53;21.83;;;;;;;;;;5127339;27;20500;-61
2020/12/02 05:34:41;;;;;;;34.40;22.27;;;;;;;;;;5120885;27;20031;-61
2020/12/02 05:37:09;;;;;;;31.00;20.87;;;;;;;;;;5127781;27;20028;-61
2020/12/02 05:39:45;;;;;;;32.13;21.63;;;;;;;;;;5121655;27;20031;-61
2020/12/02 05:42:13;;;;;;;30.93;21.37;;;;;;;;;;5124009;27;20030;-61
2020/12/02 05:44:42;;;;;;;32.70;20.70;;;;;;;;;;5128679;27;20023;-61
2020/12/02 05:47:17;;;;;;;29.13;19.70;;;;;;;;;;5124770;27;20030;-61
2020/12/02 05:49:50;;;;;;;21.90;16.50;;;;;;;;;;5126016;27;20038;-61
2020/12/02 05:52:19;;;;;;;24.87;17.87;;;;;;;;;;5108295;27;20034;-61
2020/12/02 05:54:46;;;;;;;21.67;16.23;;;;;;;;;;5130162;27;20036;-60
2020/12/02 05:57:16;;;;;;;20.20;15.23;;;;;;;;;;5121865;27;20076;-61
2020/12/02 05:59:42;;;;;;;20.07;14.70;;;;;;;;;;5123605;27;20139;-61
2020/12/02 06:02:08;;;;;;;20.70;14.57;;;;;;;;;;5122365;27;20050;-60
2020/12/02 06:04:34;;;;;;;20.93;14.20;;;;;;;;;;5126233;27;20075;-61
2020/12/02 06:07:01;;;;;;;20.07;14.27;;;;;;;;;;5119661;27;20077;-60
2020/12/02 06:09:40;;;;;;;17.67;13.93;;;;;;;;;;5122248;27;20023;-60
2020/12/02 06:12:08;;;;;;;16.53;12.77;;;;;;;;;;5122420;27;20080;-60
2020/12/02 06:14:34;;;;;;;15.73;11.93;;;;;;;;;;5105485;27;20031;-60
2020/12/02 06:17:00;;;;;;;13.50;10.47;;;;;;;;;;5121821;27;20039;-60
2020/12/02 06:19:29;;;;;;;13.40;10.40;;;;;;;;;;5121000;27;20059;-60
2020/12/02 06:21:57;;;;;;;14.27;10.47;;;;;;;;;;5120092;27;20061;-60
2020/12/02 06:24:36;;;;;;;15.10;11.20;;;;;;;;;;5119439;27;20023;-60
2020/12/02 06:27:04;;;;;;;15.57;11.43;;;;;;;;;;5098623;27;20050;-60
2020/12/02 06:29:35;;;;;;;13.57;11.10;;;;;;;;;;5102669;27;20115;-60
2020/12/02 06:32:15;;;;;;;16.40;11.40;;;;;;;;;;5116597;27;20118;-60
2020/12/02 06:34:41;;;;;;;15.20;11.80;;;;;;;;;;5121498;27;20427;-60
2020/12/02 06:37:18;;;;;;;16.50;12.53;;;;;;;;;;5103288;27;20035;-60
2020/12/02 06:39:47;;;;;;;16.87;12.30;;;;;;;;;;5119309;27;20035;-60
2020/12/02 06:42:31;;;;;;;17.60;13.00;;;;;;;;;;5120652;27;20434;-60
2020/12/02 06:45:06;;;;;;;15.67;10.97;;;;;;;;;;5122381;27;20498;-60
2020/12/02 06:47:33;;;;;;;15.00;11.50;;;;;;;;;;5117146;27;20110;-60
2020/12/02 06:50:02;;;;;;;13.77;11.33;;;;;;;;;;5124533;27;20050;-60
2020/12/02 06:52:35;;;;;;;17.63;13.63;;;;;;;;;;5121139;27;20030;-60
2020/12/02 06:55:09;;;;;;;15.93;11.97;;;;;;;;;;5118276;27;20024;-60
2020/12/02 06:57:35;;;;;;;12.93;9.80;;;;;;;;;;5119040;27;20022;-60
2020/12/02 07:00:02;;;;;;;13.03;10.27;;;;;;;;;;5108082;27;20485;-60
2020/12/02 07:02:47;;;;;;;12.90;9.67;;;;;;;;;;5121338;27;20042;-60
2020/12/02 07:05:31;;;;;;;12.73;9.70;;;;;;;;;;5125057;27;20023;-60
2020/12/02 07:08:06;;;;;;;11.18;8.80;;;;;;;;;;5116806;27;20028;-59
2020/12/02 07:10:32;;;;;;;14.48;11.10;;;;;;;;;;5116857;27;20032;-60
2020/12/02 07:12:58;;;;;;;13.27;10.60;;;;;;;;;;5122500;27;20024;-61
2020/12/02 07:15:25;;;;;;;13.80;10.37;;;;;;;;;;5113881;27;20035;-61
2020/12/02 07:17:51;;;;;;;11.80;9.60;;;;;;;;;;5118049;27;20477;-61
2020/12/02 07:20:18;;;;;;;14.03;10.80;;;;;;;;;;5116625;27;20046;-61
2020/12/02 07:22:55;;;;;;;16.33;11.50;;;;;;;;;;5121767;27;20023;-60
2020/12/02 07:25:23;;;;;;;16.27;11.80;;;;;;;;;;5117736;27;20115;-60
2020/12/02 07:27:49;;;;;;;18.80;13.90;;;;;;;;;;5122609;27;20091;-60
2020/12/02 07:30:36;;;;;;;16.83;13.27;;;;;;;;;;5116672;27;20079;-60
2020/12/02 07:33:11;;;;;;;18.73;13.83;;;;;;;;;;5121414;27;20115;-60
2020/12/02 07:35:37;;;;;;;;;;;;;;;;;;5106629;27;20028;-60
2020/12/02 07:38:06;;;;;;;20.27;13.83;;;;;;;;;;5117482;27;19914;-60
2020/12/02 07:40:37;;;;;;;19.17;14.00;;;;;;;;;;5097901;27;20519;-60
2020/12/02 07:43:04;;;;;;;20.63;14.90;;;;;;;;;;5125360;27;20469;-60
2020/12/02 07:45:32;;;;;;;20.67;15.63;;;;;;;;;;5119100;27;20035;-60
2020/12/02 07:47:58;;;;;;;20.67;15.07;;;;;;;;;;5126138;27;20495;-61
2020/12/02 07:50:34;;;;;;;22.67;15.07;;;;;;;;;;5117353;27;20036;-60
2020/12/02 07:53:13;;;;;;;21.30;16.23;;;;;;;;;;5130266;27;20472;-60
2020/12/02 07:55:44;;;;;;;22.20;16.43;;;;;;;;;;5118278;27;20023;-61
2020/12/02 07:58:20;;;;;;;26.10;17.03;;;;;;;;;;5127004;27;20118;-61
2020/12/02 08:00:47;;;;;;;24.17;16.17;;;;;;;;;;5116510;27;20361;-61
2020/12/02 08:03:25;;;;;;;24.67;16.97;;;;;;;;;;5122423;27;20028;-61
2020/12/02 08:05:55;;;;;;;27.67;17.97;;;;;;;;;;5119715;27;20023;-60
2020/12/02 08:08:21;;;;;;;23.77;17.77;;;;;;;;;;5125629;27;20016;-61
2020/12/02 08:10:47;;;;;;;22.53;16.90;;;;;;;;;;5116115;27;20468;-61
2020/12/02 08:13:18;;;;;;;23.57;17.80;;;;;;;;;;5126863;27;20027;-60
2020/12/02 08:15:50;;;;;;;22.60;15.93;;;;;;;;;;5121791;27;20031;-59
2020/12/02 08:18:18;;;;;;;20.83;15.90;;;;;;;;;;5111312;28;20027;-61
2020/12/02 08:20:45;;;;;;;20.50;15.33;;;;;;;;;;5120181;27;20523;-61
2020/12/02 08:23:14;;;;;;;23.03;17.87;;;;;;;;;;5122898;27;20024;-61
2020/12/02 08:25:48;;;;;;;20.93;15.43;;;;;;;;;;5119216;27;20031;-61
2020/12/02 08:28:17;;;;;;;26.75;16.70;;;;;;;;;;5120895;27;20468;-61
2020/12/02 08:30:43;;;;;;;21.40;15.80;;;;;;;;;;5118585;27;20035;-61
2020/12/02 08:33:11;;;;;;;21.20;14.87;;;;;;;;;;5117586;27;20443;-61
2020/12/02 08:35:41;;;;;;;23.83;15.13;;;;;;;;;;5122982;27;20473;-60
2020/12/02 08:38:12;;;;;;;23.30;16.03;;;;;;;;;;5114137;27;20027;-61
2020/12/02 08:40:38;;;;;;;21.50;14.20;;;;;;;;;;5122094;27;20408;-61
2020/12/02 08:43:17;;;;;;;20.83;14.13;;;;;;;;;;5121165;27;20024;-61
2020/12/02 08:46:16;;;;;;;21.40;14.63;;;;;;;;;;5121132;27;20023;-62
2020/12/02 08:48:43;;;;;;;17.20;13.13;;;;;;;;;;5097617;27;20469;-61
2020/12/02 08:51:13;;;;;;;16.80;13.00;;;;;;;;;;5130117;27;20019;-61
2020/12/02 08:53:39;;;;;;;17.53;13.10;;;;;;;;;;5121491;27;20031;-61
2020/12/02 08:56:13;;;;;;;20.90;14.20;;;;;;;;;;5123108;27;20038;-60
2020/12/02 08:58:39;;;;;;;20.23;14.07;;;;;;;;;;5124206;27;20381;-60
2020/12/02 09:01:06;;;;;;;20.40;14.83;;;;;;;;;;5121314;27;20035;-60
2020/12/02 09:03:32;;;;;;;16.70;12.63;;;;;;;;;;5120456;27;20030;-60
2020/12/02 09:05:58;;;;;;;16.17;13.50;;;;;;;;;;5127594;27;20035;-60
2020/12/02 09:08:24;;;;;;;15.83;12.13;;;;;;;;;;5123295;27;20392;-60
2020/12/02 09:10:50;;;;;;;15.33;12.57;;;;;;;;;;5129743;27;20023;-60
2020/12/02 09:13:16;;;;;;;14.73;11.73;;;;;;;;;;5117209;27;20038;-60
2020/12/02 09:15:43;;;;;;;13.50;10.27;;;;;;;;;;5124018;27;20024;-60
2020/12/02 09:18:09;;;;;;;13.60;10.90;;;;;;;;;;5119012;27;20027;-61
2020/12/02 09:20:35;;;;;;;16.57;11.17;;;;;;;;;;5126550;27;20039;-60
2020/12/02 09:23:01;;;;;;;15.90;11.57;;;;;;;;;;5120739;27;20031;-60
2020/12/02 09:25:27;;;;;;;13.20;10.03;;;;;;;;;;5124287;27;20124;-60
2020/12/02 09:27:53;;;;;;;10.53;9.43;;;;;;;;;;5128201;27;20023;-60
2020/12/02 09:30:19;;;;;;;14.70;10.47;;;;;;;;;;5141271;27;20035;-60
2020/12/02 09:32:45;;;;;;;11.00;8.80;;;;;;;;;;5128902;27;20031;-60
2020/12/02 09:35:11;;;;;;;11.50;9.30;;;;;;;;;;5123049;27;20027;-60
2020/12/02 09:37:37;;;;;;;9.83;8.37;;;;;;;;;;5124023;27;20102;-60
2020/12/02 09:40:05;;;;;;;11.43;8.33;;;;;;;;;;5119113;27;20039;-60
2020/12/02 09:42:31;;;;;;;9.17;7.43;;;;;;;;;;5123005;27;20085;-60
2020/12/02 09:45:01;;;;;;;8.30;7.40;;;;;;;;;;5122970;27;20031;-61
2020/12/02 09:47:28;;;;;;;9.50;7.53;;;;;;;;;;5106085;27;20027;-61
2020/12/02 09:49:54;;;;;;;9.90;8.27;;;;;;;;;;5115377;27;20059;-60
2020/12/02 09:52:27;;;;;;;10.27;8.23;;;;;;;;;;5129477;27;20065;-61
2020/12/02 09:54:54;;;;;;;8.70;7.30;;;;;;;;;;5110993;27;20028;-61
2020/12/02 09:57:23;;;;;;;10.47;7.27;;;;;;;;;;5124690;27;20476;-61
2020/12/02 09:59:50;;;;;;;8.20;7.07;;;;;;;;;;5117838;27;20488;-61
2020/12/02 10:02:34;;;;;;;9.57;7.43;;;;;;;;;;5133497;27;20031;-61
2020/12/02 10:05:00;;;;;;;9.40;8.40;;;;;;;;;;5121028;27;20102;-61
2020/12/02 10:07:49;;;;;;;10.97;8.30;;;;;;;;;;5122631;27;20248;-61
2020/12/02 10:10:18;;;;;;;10.47;8.10;;;;;;;;;;5121483;27;20024;-62
2020/12/02 10:12:44;;;;;;;9.97;8.30;;;;;;;;;;5111718;27;20456;-62
2020/12/02 10:15:19;;;;;;;11.60;8.87;;;;;;;;;;5125221;27;20058;-62
2020/12/02 10:17:45;;;;;;;8.57;6.63;;;;;;;;;;5119181;27;20133;-62
2020/12/02 10:20:17;;;;;;;7.90;6.80;;;;;;;;;;5124960;27;20130;-62
2020/12/02 10:23:02;;;;;;;8.83;6.80;;;;;;;;;;5124932;27;20418;-62
2020/12/02 10:25:44;;;;;;;7.38;6.13;;;;;;;;;;5123254;27;20026;-62
2020/12/02 10:28:09;;;;;;;6.70;5.57;;;;;;;;;;5112330;27;20050;-62
2020/12/02 10:30:41;;;;;;;5.10;4.40;;;;;;;;;;5124492;27;20469;-62
2020/12/02 10:33:26;;;;;;;5.87;5.27;;;;;;;;;;5121939;27;20027;-62
2020/12/02 10:35:52;;;;;;;4.72;4.22;;;;;;;;;;5127240;27;20019;-62
2020/12/02 10:38:29;;;;;;;4.87;4.17;;;;;;;;;;5101775;27;20506;-61
2020/12/02 10:40:59;;;;;;;6.17;5.30;;;;;;;;;;5124044;27;20053;-61
2020/12/02 10:43:36;;;;;;;6.03;4.80;;;;;;;;;;5126668;27;20038;-60
2020/12/02 10:46:02;;;;;;;4.93;4.43;;;;;;;;;;5122566;27;20023;-60
2020/12/02 10:48:47;;;;;;;5.13;4.10;;;;;;;;;;5121354;27;20031;-60
2020/12/02 10:51:14;;;;;;;6.65;4.28;;;;;;;;;;5139560;27;20031;-60
2020/12/02 10:53:41;;;;;;;4.70;4.30;;;;;;;;;;5119374;27;20499;-61
2020/12/02 10:56:08;;;;;;;5.10;3.77;;;;;;;;;;5123997;27;20023;-60
2020/12/02 10:58:34;;;;;;;5.07;4.23;;;;;;;;;;5118476;27;20141;-57
2020/12/02 11:01:02;;;;;;;4.70;4.30;;;;;;;;;;5123311;27;20044;-58
2020/12/02 11:03:32;;;;;;;6.33;4.00;;;;;;;;;;5116500;27;20023;-60
2020/12/02 11:06:01;;;;;;;4.97;4.17;;;;;;;;;;5123169;27;20115;-57
2020/12/02 11:08:30;;;;;;;4.13;3.63;;;;;;;;;;5115621;27;20028;-57
2020/12/02 11:10:59;;;;;;;4.67;3.43;;;;;;;;;;5119075;27;20129;-57
2020/12/02 11:13:44;;;;;;;4.03;3.63;;;;;;;;;;5117260;27;20053;-57
2020/12/02 11:16:14;;;;;;;5.00;3.63;;;;;;;;;;5126028;27;20028;-56
2020/12/02 11:18:40;;;;;;;6.80;4.77;;;;;;;;;;5131244;27;20061;-58
2020/12/02 11:21:26;;;;;;;7.30;4.20;;;;;;;;;;5121844;27;20074;-56
2020/12/02 11:23:52;;;;;;;4.33;3.93;;;;;;;;;;5116613;27;20023;-55
2020/12/02 11:26:18;;;;;;;3.97;3.40;;;;;;;;;;5122421;27;20522;-54
2020/12/02 11:28:45;;;;;;;3.97;3.50;;;;;;;;;;5123711;27;20502;-58
2020/12/02 11:31:30;;;;;;;3.80;3.23;;;;;;;;;;5127443;27;20222;-57
2020/12/02 11:33:57;;;;;;;3.90;3.53;;;;;;;;;;5116337;27;20030;-60
2020/12/02 11:36:44;;;;;;;3.40;3.10;;;;;;;;;;5120272;27;20064;-55
2020/12/02 11:39:19;;;;;;;5.87;3.47;;;;;;;;;;5118687;27;20031;-56
2020/12/02 11:41:51;;;;;;;3.37;3.07;;;;;;;;;;5107347;27;20055;-58
2020/12/02 11:44:37;;;;;;;3.90;3.57;;;;;;;;;;5122357;27;20086;-61
2020/12/02 11:47:27;;;;;;;6.37;4.20;;;;;;;;;;5123510;27;20612;-61
2020/12/02 11:49:57;;;;;;;5.67;3.43;;;;;;;;;;5116043;27;20113;-60
2020/12/02 11:52:50;;;;;;;2.83;2.63;;;;;;;;;;5129239;27;20050;-60
2020/12/02 11:55:17;;;;;;;4.23;3.43;;;;;;;;;;5098780;27;20032;-60
2020/12/02 11:57:47;;;;;;;2.87;2.60;;;;;;;;;;5130009;27;20027;-60
2020/12/02 12:00:13;;;;;;;3.47;3.17;;;;;;;;;;5121686;27;20039;-60
2020/12/02 12:02:51;;;;;;;3.57;3.00;;;;;;;;;;5128966;27;20084;-60
2020/12/02 12:05:35;;;;;;;3.23;2.30;;;;;;;;;;5115765;27;20035;-61
2020/12/02 12:08:01;;;;;;;2.83;2.57;;;;;;;;;;5125387;27;20028;-59
2020/12/02 12:10:31;;;;;;;3.53;3.20;;;;;;;;;;5124837;27;20035;-60
2020/12/02 12:13:01;;;;;;;5.83;4.60;;;;;;;;;;5127587;27;20059;-60
2020/12/02 12:15:33;;;;;;;4.97;3.77;;;;;;;;;;5119908;27;20019;-60
2020/12/02 12:18:01;;;;;;;5.90;4.57;;;;;;;;;;5124425;27;20055;-60
2020/12/02 12:20:30;;;;;;;4.57;3.10;;;;;;;;;;5112565;27;20040;-60
2020/12/02 12:23:02;;;;;;;2.80;2.60;;;;;;;;;;5130277;27;20104;-61
2020/12/02 12:25:30;;;;;;;3.97;3.53;;;;;;;;;;5120948;27;20050;-61
2020/12/02 12:28:02;;;;;;;3.43;3.13;;;;;;;;;;5120092;27;20133;-60
2020/12/02 12:30:28;;;;;;;3.37;3.17;;;;;;;;;;5105754;27;20030;-60
2020/12/02 12:32:54;;;;;;;3.50;3.20;;;;;;;;;;5114417;27;20055;-60
2020/12/02 12:35:22;;;;;;;3.37;3.07;;;;;;;;;;5121980;27;20131;-60
2020/12/02 12:38:00;;;;;;;3.40;3.10;;;;;;;;;;5122690;27;20394;-61
2020/12/02 12:40:28;;;;;;;3.57;3.20;;;;;;;;;;5126395;27;20027;-60
2020/12/02 12:42:57;;;;;;;3.50;3.03;;;;;;;;;;5124479;27;20488;-58
2020/12/02 12:45:33;;;;;;;3.40;3.10;;;;;;;;;;5127024;27;20023;-60
2020/12/02 12:47:59;;;;;;;4.40;3.20;;;;;;;;;;5115876;27;20026;-60
2020/12/02 12:50:25;;;;;;;3.43;3.10;;;;;;;;;;5123206;27;20069;-61
2020/12/02 12:52:52;;;;;;;3.83;2.90;;;;;;;;;;5120569;27;20552;-60
2020/12/02 12:55:19;;;;;;;3.43;3.10;;;;;;;;;;5131936;27;20020;-60
2020/12/02 12:57:50;;;;;;;3.07;2.57;;;;;;;;;;5117295;27;20019;-60
2020/12/02 13:00:17;;;;;;;2.97;2.77;;;;;;;;;;5132471;27;20048;-60
2020/12/02 13:02:43;;;;;;;2.93;2.73;;;;;;;;;;5123605;27;20026;-60
2020/12/02 13:05:11;;;;;;;6.13;3.13;;;;;;;;;;5128602;27;20072;-59
2020/12/02 13:07:38;;;;;;;3.67;3.37;;;;;;;;;;5123385;27;20054;-60
2020/12/02 13:10:29;;;;;;;4.03;3.30;;;;;;;;;;5131998;27;20057;-60
2020/12/02 13:13:04;;;;;;;4.33;3.63;;;;;;;;;;5121850;27;20027;-60
2020/12/02 13:15:43;;;;;;;3.67;3.37;;;;;;;;;;5126700;27;20068;-60
2020/12/02 13:18:28;;;;;;;3.87;3.57;;;;;;;;;;5124892;27;20049;-61
2020/12/02 13:20:56;;;;;;;3.35;2.63;;;;;;;;;;5133212;27;20114;-60
2020/12/02 13:23:26;;;;;;;4.30;3.30;;;;;;;;;;5129880;27;20472;-61
2020/12/02 13:26:05;;;;;;;3.70;3.30;;;;;;;;;;5126410;27;20503;-60
2020/12/02 13:28:36;;;;;;;5.33;4.00;;;;;;;;;;5122273;27;20031;-59
2020/12/02 13:31:18;;;;;;;4.80;4.40;;;;;;;;;;5130038;27;20127;-60
2020/12/02 13:33:44;;;;;;;6.50;4.67;;;;;;;;;;5108871;27;20391;-60
2020/12/02 13:36:20;;;;;;;5.27;4.33;;;;;;;;;;5123170;27;20019;-59
2020/12/02 13:38:46;;;;;;;4.00;3.60;;;;;;;;;;5119008;27;20499;-60
2020/12/02 13:41:19;;;;;;;4.53;4.13;;;;;;;;;;5126946;27;20030;-60
2020/12/02 13:43:45;;;;;;;5.67;4.03;;;;;;;;;;5115858;27;20022;-60
2020/12/02 13:46:12;;;;;;;3.43;3.10;;;;;;;;;;5124666;27;20509;-60
2020/12/02 13:48:38;;;;;;;3.60;3.30;;;;;;;;;;5123199;27;20019;-61
2020/12/02 13:51:33;;;;;;;4.67;3.50;;;;;;;;;;5126597;27;20035;-61
2020/12/02 13:54:02;;;;;;;3.90;3.15;;;;;;;;;;5109322;27;20039;-60
2020/12/02 13:56:33;;;;;;;3.20;2.90;;;;;;;;;;5123908;27;20031;-60
2020/12/02 13:59:07;;;;;;;5.00;4.13;;;;;;;;;;5124930;27;20461;-60
2020/12/02 14:01:34;;;;;;;5.57;5.00;;;;;;;;;;5128167;27;20039;-60
2020/12/02 14:04:19;;;;;;;12.53;7.17;;;;;;;;;;5126806;27;20026;-61
2020/12/02 14:07:04;;;;;;;6.50;5.00;;;;;;;;;;5128517;27;20027;-60
2020/12/02 14:09:33;;;;;;;4.72;4.28;;;;;;;;;;5119365;27;20062;-61
2020/12/02 14:12:01;;;;;;;5.33;4.83;;;;;;;;;;5126194;27;20139;-60
2020/12/02 14:14:35;;;;;;;4.83;4.37;;;;;;;;;;5123459;27;20053;-60
2020/12/02 14:17:01;;;;;;;4.28;3.88;;;;;;;;;;5117874;27;20625;-60
2020/12/02 14:19:28;;;;;;;5.27;3.80;;;;;;;;;;5124176;27;20028;-61
2020/12/02 14:22:00;;;;;;;7.70;4.00;;;;;;;;;;5126697;27;20038;-61
2020/12/02 14:24:27;;;;;;;4.47;3.73;;;;;;;;;;5127970;27;20019;-60
2020/12/02 14:26:53;;;;;;;3.40;3.10;;;;;;;;;;5114791;27;20015;-61
2020/12/02 14:29:19;;;;;;;4.10;3.70;;;;;;;;;;5120295;27;20030;-60
2020/12/02 14:31:45;;;;;;;4.00;3.70;;;;;;;;;;5118560;27;20024;-60
2020/12/02 14:34:11;;;;;;;4.07;3.20;;;;;;;;;;5128486;27;20026;-60
2020/12/02 14:36:37;;;;;;;3.53;3.23;;;;;;;;;;5122746;27;20038;-60
2020/12/02 14:39:03;;;;;;;3.37;3.17;;;;;;;;;;5125385;27;20495;-60
2020/12/02 14:41:29;;;;;;;4.33;3.93;;;;;;;;;;5112856;27;20032;-60
2020/12/02 14:43:55;;;;;;;3.47;3.17;;;;;;;;;;5123237;27;20026;-60